Time;durP1;ratioP1;P1;durP2;ratioP2;P2;SDS_P1;SDS_P2;PMS_P1;PMS_P2;Temp;Humidity;BMP_temperature;BMP_pressure;BME280_temperature;BME280_humidity;BME280_pressure;Samples;Min_cycle;Max_cycle;Signal;HPM_P1;HPM_P2
2021/03/26 00:01:14;;;;;;;9.55;4.50;;;7.00;99.90;;;;;;1878701;74;21068;-74
2021/03/26 00:03:40;;;;;;;7.40;4.12;;;7.00;99.90;;;;;;1878580;74;21579;-74
2021/03/26 00:06:06;;;;;;;8.10;4.35;;;7.00;99.90;;;;;;1880539;74;21077;-74
2021/03/26 00:08:33;;;;;;;9.73;3.55;;;6.90;99.90;;;;;;1878635;74;21081;-74
2021/03/26 00:10:59;;;;;;;5.75;3.65;;;6.90;99.90;;;;;;1879683;74;21088;-74
2021/03/26 00:13:25;;;;;;;7.25;4.22;;;7.00;99.90;;;;;;1876771;74;21062;-74
2021/03/26 00:15:51;;;;;;;7.17;4.47;;;7.00;99.90;;;;;;1881245;74;21084;-74
2021/03/26 00:18:17;;;;;;;10.43;4.40;;;7.10;99.90;;;;;;1878607;74;21077;-74
2021/03/26 00:20:43;;;;;;;8.55;4.50;;;7.10;99.90;;;;;;1877063;74;21147;-74
2021/03/26 00:23:09;;;;;;;7.67;4.17;;;7.10;99.90;;;;;;1879717;75;21597;-74
2021/03/26 00:25:36;;;;;;;7.08;4.17;;;7.20;99.90;;;;;;1880930;74;21477;-74
2021/03/26 00:28:03;;;;;;;7.92;4.22;;;7.20;99.90;;;;;;1879661;75;21512;-74
2021/03/26 00:30:30;;;;;;;7.60;4.45;;;7.10;99.90;;;;;;1878879;75;21127;-74
2021/03/26 00:32:56;;;;;;;7.83;4.08;;;7.20;99.90;;;;;;1877025;75;21503;-74
2021/03/26 00:35:22;;;;;;;6.25;3.90;;;7.30;99.90;;;;;;1877574;75;21492;-74
2021/03/26 00:37:48;;;;;;;6.37;3.85;;;7.20;99.90;;;;;;1880179;75;21570;-73
2021/03/26 00:40:14;;;;;;;7.92;4.40;;;7.20;99.90;;;;;;1879950;75;21512;-74
2021/03/26 00:42:40;;;;;;;10.93;4.25;;;7.10;99.90;;;;;;1879816;74;21144;-74
2021/03/26 00:45:06;;;;;;;9.58;4.03;;;7.20;99.90;;;;;;1881284;75;21053;-74
2021/03/26 00:47:32;;;;;;;7.20;3.83;;;7.20;99.90;;;;;;1879797;74;21077;-74
2021/03/26 00:49:59;;;;;;;8.50;4.90;;;7.20;99.90;;;;;;1877615;74;21080;-74
2021/03/26 00:52:25;;;;;;;8.10;4.80;;;7.10;99.90;;;;;;1878714;74;21073;-74
2021/03/26 00:54:51;;;;;;;8.68;4.17;;;7.00;99.90;;;;;;1881971;74;21080;-73
2021/03/26 00:57:17;;;;;;;6.50;4.35;;;6.90;99.90;;;;;;1877357;74;21045;-73
2021/03/26 00:59:43;;;;;;;11.05;4.90;;;6.80;99.90;;;;;;1879722;74;21085;-74
2021/03/26 01:02:09;;;;;;;7.50;4.83;;;6.80;99.90;;;;;;1877657;75;21135;-73
2021/03/26 01:04:35;;;;;;;9.23;5.22;;;6.80;99.90;;;;;;1876894;74;21241;-73
2021/03/26 01:07:01;;;;;;;8.95;4.42;;;6.70;99.90;;;;;;1879331;75;21092;-73
2021/03/26 01:09:28;;;;;;;6.95;4.70;;;6.70;99.90;;;;;;1880898;75;21085;-73
2021/03/26 01:11:54;;;;;;;5.50;4.20;;;6.60;99.90;;;;;;1881182;74;21058;-74
2021/03/26 01:14:20;;;;;;;7.28;4.55;;;6.50;99.90;;;;;;1878283;75;22640;-73
2021/03/26 01:16:46;;;;;;;11.15;4.97;;;6.50;99.90;;;;;;1877518;75;21625;-74
2021/03/26 01:19:13;;;;;;;6.55;4.65;;;6.50;99.90;;;;;;1879207;74;21501;-74
2021/03/26 01:21:39;;;;;;;12.13;4.95;;;6.40;99.90;;;;;;1880723;74;21092;-73
2021/03/26 01:24:05;;;;;;;10.32;5.33;;;6.50;99.90;;;;;;1879623;74;21085;-74
2021/03/26 01:26:31;;;;;;;16.10;5.22;;;6.50;99.90;;;;;;1878705;74;21049;-74
2021/03/26 01:28:57;;;;;;;10.58;4.92;;;6.50;99.90;;;;;;1877965;75;21092;-73
2021/03/26 01:31:24;;;;;;;13.10;5.55;;;6.50;99.90;;;;;;1879548;75;21085;-73
2021/03/26 01:33:50;;;;;;;10.82;6.03;;;6.50;99.90;;;;;;1878275;74;21165;-73
2021/03/26 01:36:16;;;;;;;8.88;5.80;;;6.60;99.90;;;;;;1876896;75;21500;-73
2021/03/26 01:38:42;;;;;;;14.30;5.58;;;6.60;99.90;;;;;;1878596;75;21461;-74
2021/03/26 01:41:08;;;;;;;8.90;5.03;;;6.60;99.90;;;;;;1877676;75;21534;-73
2021/03/26 01:43:34;;;;;;;13.53;5.90;;;6.70;99.90;;;;;;1880159;75;21574;-74
2021/03/26 01:46:00;;;;;;;17.35;5.55;;;6.60;99.90;;;;;;1880373;74;21149;-74
2021/03/26 01:48:26;;;;;;;8.50;5.70;;;6.60;99.90;;;;;;1878924;75;21081;-73
2021/03/26 01:50:52;;;;;;;7.53;4.72;;;6.60;99.90;;;;;;1877222;75;21105;-73
2021/03/26 01:53:19;;;;;;;7.40;4.80;;;6.50;99.90;;;;;;1877183;75;21081;-73
2021/03/26 01:55:45;;;;;;;11.25;5.80;;;6.50;99.90;;;;;;1877179;75;21135;-73
2021/03/26 01:58:11;;;;;;;11.50;5.75;;;6.40;99.90;;;;;;1878878;75;21145;-74
2021/03/26 02:00:37;;;;;;;13.22;6.87;;;6.50;99.90;;;;;;1880028;75;21139;-74
2021/03/26 02:03:03;;;;;;;9.68;5.90;;;6.30;99.90;;;;;;1879617;75;21031;-74
2021/03/26 02:05:29;;;;;;;16.62;6.10;;;6.20;99.90;;;;;;1877216;75;21081;-74
2021/03/26 02:07:55;;;;;;;15.60;5.40;;;6.20;99.90;;;;;;1877202;75;21474;-74
2021/03/26 02:10:23;;;;;;;9.83;5.40;;;6.20;99.90;;;;;;1876658;75;21089;-73
2021/03/26 02:12:49;;;;;;;9.20;5.62;;;6.30;99.90;;;;;;1877523;75;21128;-74
2021/03/26 02:15:15;;;;;;;15.23;4.55;;;6.30;99.90;;;;;;1877364;75;21082;-74
2021/03/26 02:17:41;;;;;;;7.35;3.92;;;6.20;99.90;;;;;;1880083;75;21275;-74
2021/03/26 02:20:07;;;;;;;7.22;4.10;;;6.10;99.90;;;;;;1878663;75;21047;-73
2021/03/26 02:22:34;;;;;;;8.50;4.35;;;6.10;99.90;;;;;;1877621;75;21490;-73
2021/03/26 02:25:00;;;;;;;13.25;5.37;;;6.00;99.90;;;;;;1877461;75;21221;-73
2021/03/26 02:27:26;;;;;;;7.08;4.85;;;5.90;99.90;;;;;;1881969;75;21132;-73
2021/03/26 02:29:52;;;;;;;12.03;6.03;;;6.00;99.90;;;;;;1877508;75;21065;-73
2021/03/26 02:32:18;;;;;;;8.30;4.87;;;6.10;99.90;;;;;;1877046;75;21140;-73
2021/03/26 02:34:44;;;;;;;9.28;5.70;;;6.10;99.90;;;;;;1877560;75;21074;-74
2021/03/26 02:37:10;;;;;;;13.65;5.85;;;6.10;99.90;;;;;;1877585;75;21042;-74
2021/03/26 02:39:36;;;;;;;7.58;4.45;;;6.10;99.90;;;;;;1877788;75;21143;-73
2021/03/26 02:42:03;;;;;;;8.13;4.50;;;6.10;99.90;;;;;;1878430;75;21123;-74
2021/03/26 02:44:29;;;;;;;8.93;4.87;;;6.10;99.90;;;;;;1877378;75;21085;-74
2021/03/26 02:46:55;;;;;;;9.30;4.90;;;6.00;99.90;;;;;;1879025;75;21071;-73
2021/03/26 02:49:21;;;;;;;15.65;5.05;;;6.00;99.90;;;;;;1878770;75;21434;-73
2021/03/26 02:51:47;;;;;;;8.55;4.30;;;5.90;99.90;;;;;;1880767;75;21497;-73
2021/03/26 02:54:13;;;;;;;12.50;4.97;;;5.80;99.90;;;;;;1877119;75;21508;-74
2021/03/26 02:56:39;;;;;;;9.88;5.53;;;5.80;99.90;;;;;;1877385;75;21489;-73
2021/03/26 02:59:05;;;;;;;9.20;4.90;;;5.70;99.90;;;;;;1877370;75;21062;-74
2021/03/26 03:01:32;;;;;;;8.95;5.30;;;5.70;99.90;;;;;;1878029;75;21046;-74
2021/03/26 03:03:58;;;;;;;9.95;5.25;;;5.70;99.90;;;;;;1877308;75;21069;-74
2021/03/26 03:06:25;;;;;;;7.87;4.70;;;5.70;99.90;;;;;;1877947;75;21073;-73
2021/03/26 03:08:51;;;;;;;13.93;4.95;;;5.60;99.90;;;;;;1878614;75;21473;-74
2021/03/26 03:11:18;;;;;;;7.00;5.10;;;5.60;99.90;;;;;;1878280;75;21521;-74
2021/03/26 03:13:44;;;;;;;9.18;4.90;;;5.50;99.90;;;;;;1877059;75;21439;-73
2021/03/26 03:16:10;;;;;;;12.82;5.58;;;5.50;99.90;;;;;;1878146;75;21191;-73
2021/03/26 03:18:36;;;;;;;9.60;5.00;;;5.40;99.90;;;;;;1880271;75;21065;-73
2021/03/26 03:21:02;;;;;;;5.70;3.80;;;5.20;99.90;;;;;;1877731;75;21074;-74
2021/03/26 03:23:28;;;;;;;7.15;4.65;;;5.20;99.90;;;;;;1877516;75;22651;-73
2021/03/26 03:25:54;;;;;;;9.08;5.20;;;5.10;99.90;;;;;;1877714;75;21179;-74
2021/03/26 03:28:20;;;;;;;11.68;6.28;;;5.10;99.90;;;;;;1879212;75;21077;-73
2021/03/26 03:30:47;;;;;;;9.28;6.22;;;5.10;99.90;;;;;;1876857;75;21061;-73
2021/03/26 03:33:13;;;;;;;11.12;5.90;;;5.10;99.90;;;;;;1881316;75;21135;-74
2021/03/26 03:35:39;;;;;;;11.75;6.58;;;5.00;99.90;;;;;;1877320;75;21136;-74
2021/03/26 03:38:05;;;;;;;10.72;5.83;;;5.00;99.90;;;;;;1877300;75;21226;-74
2021/03/26 03:40:31;;;;;;;16.52;6.35;;;5.00;99.90;;;;;;1876862;75;21156;-74
2021/03/26 03:42:57;;;;;;;18.42;5.78;;;5.00;99.90;;;;;;1877694;75;21069;-74
2021/03/26 03:45:23;;;;;;;12.73;6.33;;;5.00;99.90;;;;;;1877456;75;21085;-73
2021/03/26 03:47:49;;;;;;;9.13;5.62;;;4.90;99.90;;;;;;1877648;75;21481;-74
2021/03/26 03:50:16;;;;;;;8.20;5.47;;;4.90;99.90;;;;;;1877223;75;21525;-74
2021/03/26 03:52:42;;;;;;;9.55;5.83;;;4.80;99.90;;;;;;1877227;75;21506;-74
2021/03/26 03:55:08;;;;;;;8.88;5.97;;;4.80;99.90;;;;;;1876799;75;21046;-72
2021/03/26 03:57:34;;;;;;;11.65;6.10;;;4.70;99.90;;;;;;1877210;75;21086;-74
2021/03/26 04:00:00;;;;;;;13.22;5.33;;;4.80;99.90;;;;;;1878778;75;21175;-75
2021/03/26 04:02:26;;;;;;;13.53;5.55;;;4.70;99.90;;;;;;1878227;75;21077;-74
2021/03/26 04:04:52;;;;;;;12.35;6.15;;;4.60;99.90;;;;;;1879396;75;21061;-75
2021/03/26 04:07:18;;;;;;;10.25;5.12;;;4.70;99.90;;;;;;1877347;75;21152;-74
2021/03/26 04:09:44;;;;;;;10.72;5.55;;;4.70;99.90;;;;;;1877259;75;21043;-75
2021/03/26 04:12:11;;;;;;;9.38;5.60;;;4.60;99.90;;;;;;1878095;75;21039;-75
2021/03/26 04:14:37;;;;;;;9.23;5.47;;;4.50;99.90;;;;;;1880171;75;21594;-75
2021/03/26 04:17:03;;;;;;;10.32;5.78;;;4.50;99.90;;;;;;1877244;75;21474;-72
2021/03/26 04:19:29;;;;;;;9.38;4.87;;;4.50;99.90;;;;;;1876976;75;21470;-75
2021/03/26 04:21:55;;;;;;;15.20;5.92;;;4.50;99.90;;;;;;1879003;75;21061;-72
2021/03/26 04:24:22;;;;;;;7.70;4.58;;;4.50;99.90;;;;;;1876925;75;21082;-75
2021/03/26 04:26:48;;;;;;;10.68;5.10;;;4.50;99.90;;;;;;1876853;75;21147;-73
2021/03/26 04:29:15;;;;;;;8.98;5.58;;;4.50;99.90;;;;;;1877562;75;21085;-73
2021/03/26 04:31:41;;;;;;;8.53;5.15;;;4.50;99.90;;;;;;1878358;75;21117;-72
2021/03/26 04:34:07;;;;;;;8.53;5.62;;;4.40;99.90;;;;;;1876888;75;21151;-72
2021/03/26 04:36:33;;;;;;;7.10;5.30;;;4.50;99.90;;;;;;1878765;75;21466;-72
2021/03/26 04:38:59;;;;;;;7.37;5.08;;;4.50;99.90;;;;;;1878652;75;21039;-72
2021/03/26 04:41:25;;;;;;;8.08;4.95;;;4.50;99.90;;;;;;1877235;75;21054;-74
2021/03/26 04:43:51;;;;;;;11.63;5.78;;;4.40;99.90;;;;;;1877148;75;21140;-72
2021/03/26 04:46:17;;;;;;;8.25;5.92;;;4.30;99.90;;;;;;1877345;75;21147;-75
2021/03/26 04:48:44;;;;;;;9.20;6.05;;;4.30;99.90;;;;;;1876810;75;21188;-72
2021/03/26 04:51:10;;;;;;;11.80;6.28;;;4.30;99.90;;;;;;1876774;75;21144;-74
2021/03/26 04:53:36;;;;;;;13.90;6.33;;;4.10;99.90;;;;;;1879617;75;21078;-75
2021/03/26 04:56:02;;;;;;;12.40;5.80;;;4.20;99.90;;;;;;1877387;75;21043;-75
2021/03/26 04:58:28;;;;;;;8.90;5.22;;;4.10;99.90;;;;;;1871798;75;21135;-75
2021/03/26 05:00:54;;;;;;;10.72;6.20;;;4.10;99.90;;;;;;1876675;75;21560;-75
2021/03/26 05:03:20;;;;;;;10.43;5.60;;;4.20;99.90;;;;;;1881108;75;21497;-74
2021/03/26 05:05:46;;;;;;;12.05;6.83;;;4.20;99.90;;;;;;1876674;75;21572;-74
2021/03/26 05:08:13;;;;;;;13.98;6.53;;;4.20;99.90;;;;;;1878577;75;21070;-75
2021/03/26 05:10:39;;;;;;;11.68;6.03;;;4.20;99.90;;;;;;1877126;75;21054;-75
2021/03/26 05:13:05;;;;;;;8.88;5.50;;;4.20;99.90;;;;;;1878102;75;21070;-73
2021/03/26 05:15:31;;;;;;;8.45;5.65;;;4.30;99.90;;;;;;1878192;75;21087;-74
2021/03/26 05:17:57;;;;;;;10.23;6.22;;;4.30;99.90;;;;;;1877389;75;21070;-73
2021/03/26 05:20:23;;;;;;;9.45;6.12;;;4.20;99.90;;;;;;1878212;74;21136;-73
2021/03/26 05:22:49;;;;;;;19.42;6.80;;;4.20;99.90;;;;;;1881701;74;21159;-73
2021/03/26 05:25:15;;;;;;;18.17;6.80;;;4.30;99.90;;;;;;1877255;75;21497;-73
2021/03/26 05:27:42;;;;;;;16.87;6.75;;;4.40;99.90;;;;;;1878245;75;21571;-74
2021/03/26 05:30:08;;;;;;;10.53;5.70;;;4.40;99.90;;;;;;1879879;75;21454;-74
2021/03/26 05:32:35;;;;;;;12.35;6.17;;;4.40;99.90;;;;;;1877715;75;21054;-74
2021/03/26 05:35:01;;;;;;;9.45;6.08;;;4.50;99.90;;;;;;1877525;75;21170;-73
2021/03/26 05:37:27;;;;;;;13.30;5.37;;;4.60;99.90;;;;;;1876802;75;21073;-73
2021/03/26 05:39:53;;;;;;;13.75;6.67;;;4.50;99.90;;;;;;1877305;75;21078;-73
2021/03/26 05:42:19;;;;;;;10.20;6.35;;;4.50;99.90;;;;;;1876645;75;21159;-73
2021/03/26 05:44:45;;;;;;;14.53;7.03;;;4.40;99.90;;;;;;1883030;75;21138;-73
2021/03/26 05:47:11;;;;;;;10.28;6.85;;;4.50;99.90;;;;;;1877111;75;21474;-73
2021/03/26 05:49:38;;;;;;;18.95;7.15;;;4.50;99.90;;;;;;1877286;75;21502;-73
2021/03/26 05:52:04;;;;;;;11.38;6.55;;;4.70;99.90;;;;;;1877516;75;21077;-73
2021/03/26 05:54:30;;;;;;;13.13;6.12;;;4.70;99.90;;;;;;1877463;75;21073;-73
2021/03/26 05:56:56;;;;;;;14.78;6.20;;;4.60;99.90;;;;;;1879343;75;21127;-73
2021/03/26 05:59:22;;;;;;;14.25;6.50;;;4.60;99.90;;;;;;1877225;75;21123;-73
2021/03/26 06:01:48;;;;;;;20.35;8.08;;;4.70;99.90;;;;;;1877275;75;21148;-73
2021/03/26 06:04:16;;;;;;;13.53;6.95;;;4.70;99.90;;;;;;1878036;75;21069;-74
2021/03/26 06:06:42;;;;;;;15.03;6.67;;;4.80;99.90;;;;;;1878280;75;21077;-73
2021/03/26 06:09:08;;;;;;;15.58;6.97;;;5.00;99.90;;;;;;1876811;75;21069;-73
2021/03/26 06:11:34;;;;;;;13.85;7.10;;;5.00;99.90;;;;;;1878129;75;21119;-73
2021/03/26 06:14:00;;;;;;;10.20;6.78;;;5.00;99.90;;;;;;1879620;75;21151;-73
2021/03/26 06:16:26;;;;;;;13.80;7.60;;;5.00;99.90;;;;;;1879236;75;21078;-73
2021/03/26 06:18:52;;;;;;;10.53;6.80;;;5.10;99.90;;;;;;1880499;75;21042;-73
2021/03/26 06:21:20;;;;;;;16.50;7.45;;;5.10;99.90;;;;;;1877345;75;21143;-73
2021/03/26 06:23:46;;;;;;;17.32;6.90;;;5.20;99.90;;;;;;1876725;75;21073;-73
2021/03/26 06:26:12;;;;;;;12.10;6.47;;;5.30;99.90;;;;;;1877577;75;21081;-73
2021/03/26 06:28:40;;;;;;;17.02;6.33;;;5.40;99.90;;;;;;1876807;75;21066;-74
2021/03/26 06:31:06;;;;;;;17.70;7.60;;;5.40;99.90;;;;;;1878674;75;21131;-73
2021/03/26 06:33:32;;;;;;;11.55;7.03;;;5.50;99.90;;;;;;1876832;75;21073;-73
2021/03/26 06:35:58;;;;;;;11.30;6.47;;;5.50;99.90;;;;;;1877797;75;21069;-73
2021/03/26 06:38:24;;;;;;;13.22;6.65;;;5.80;99.90;;;;;;1877067;75;21073;-73
2021/03/26 06:40:50;;;;;;;10.85;6.83;;;5.90;99.90;;;;;;1877232;75;21105;-72
2021/03/26 06:43:17;;;;;;;12.53;7.22;;;6.00;99.90;;;;;;1878802;75;21081;-73
2021/03/26 06:45:43;;;;;;;13.18;6.78;;;6.20;99.90;;;;;;1881134;75;21046;-74
2021/03/26 06:48:09;;;;;;;11.95;7.12;;;6.40;99.90;;;;;;1879111;75;21083;-74
2021/03/26 06:50:35;;;;;;;23.05;7.35;;;6.50;99.90;;;;;;1878895;75;21077;-73
2021/03/26 06:53:01;;;;;;;12.73;7.08;;;6.80;99.90;;;;;;1877560;75;21639;-73
2021/03/26 06:55:27;;;;;;;15.85;8.08;;;6.80;99.90;;;;;;1877845;75;21532;-73
2021/03/26 06:57:53;;;;;;;14.87;7.95;;;6.80;99.90;;;;;;1878584;75;21590;-73
2021/03/26 07:00:19;;;;;;;19.00;8.43;;;6.70;99.90;;;;;;1877611;75;21513;-74
2021/03/26 07:02:46;;;;;;;20.80;10.88;;;6.90;99.90;;;;;;1877897;76;21073;-73
2021/03/26 07:05:12;;;;;;;19.67;8.75;;;7.10;99.90;;;;;;1879967;75;21212;-74
2021/03/26 07:07:38;;;;;;;14.87;8.18;;;7.30;99.90;;;;;;1863547;76;21069;-74
2021/03/26 07:10:04;;;;;;;16.77;8.25;;;7.50;99.90;;;;;;1860597;75;21054;-73
2021/03/26 07:12:31;;;;;;;14.78;7.60;;;7.70;99.90;;;;;;1859299;76;21544;-74
2021/03/26 07:14:57;;;;;;;17.95;7.95;;;7.80;99.90;;;;;;1858273;76;21101;-73
2021/03/26 07:17:23;;;;;;;17.55;8.18;;;7.70;99.90;;;;;;1864058;75;21131;-73
2021/03/26 07:19:49;;;;;;;11.85;7.15;;;7.90;99.90;;;;;;1860582;76;21219;-73
2021/03/26 07:22:15;;;;;;;12.80;7.45;;;8.10;99.90;;;;;;1857480;75;21089;-75
2021/03/26 07:24:41;;;;;;;18.75;7.87;;;8.10;99.90;;;;;;1850375;75;21062;-74
2021/03/26 07:27:07;;;;;;;14.07;7.97;;;8.30;99.90;;;;;;1853785;76;21087;-73
2021/03/26 07:29:33;;;;;;;15.58;7.10;;;8.30;99.90;;;;;;1850785;76;21097;-73
2021/03/26 07:32:00;;;;;;;14.15;7.20;;;8.50;99.90;;;;;;1854997;75;21143;-74
2021/03/26 07:34:26;;;;;;;17.45;7.78;;;8.50;99.90;;;;;;1853224;76;21152;-73
2021/03/26 07:36:52;;;;;;;18.57;6.85;;;8.40;99.90;;;;;;1858009;76;21206;-73
2021/03/26 07:39:18;;;;;;;11.18;6.65;;;8.50;99.90;;;;;;1880309;74;21079;-73
2021/03/26 07:41:44;;;;;;;14.40;6.97;;;8.60;99.90;;;;;;1876974;74;21088;-73
2021/03/26 07:44:10;;;;;;;14.45;7.30;;;8.80;99.90;;;;;;1878797;75;21157;-72
2021/03/26 07:46:36;;;;;;;13.48;7.35;;;8.90;99.90;;;;;;1879116;74;21056;-74
2021/03/26 07:49:02;;;;;;;17.37;7.37;;;8.80;99.90;;;;;;1881606;74;21092;-73
2021/03/26 07:51:29;;;;;;;20.05;7.42;;;8.90;99.90;;;;;;1879488;74;21476;-73
2021/03/26 07:53:55;;;;;;;14.87;7.10;;;9.10;99.90;;;;;;1879531;75;21601;-74
2021/03/26 07:56:21;;;;;;;18.82;7.17;;;9.20;99.90;;;;;;1877965;75;21110;-74
2021/03/26 07:58:47;;;;;;;14.33;6.92;;;9.40;99.90;;;;;;1878273;75;21142;-74
2021/03/26 08:01:13;;;;;;;13.55;6.45;;;9.30;99.90;;;;;;1880773;74;21053;-74
2021/03/26 08:03:39;;;;;;;25.30;7.45;;;9.30;99.90;;;;;;1878505;75;21069;-73
2021/03/26 08:06:05;;;;;;;15.60;6.60;;;9.50;99.90;;;;;;1877967;74;21096;-74
2021/03/26 08:08:32;;;;;;;13.95;6.72;;;9.70;99.90;;;;;;1878555;74;21562;-74
2021/03/26 08:10:58;;;;;;;13.95;6.55;;;9.80;99.90;;;;;;1879742;74;21562;-73
2021/03/26 08:13:24;;;;;;;14.15;6.67;;;10.00;99.90;;;;;;1877920;75;21517;-74
2021/03/26 08:15:50;;;;;;;16.60;6.53;;;10.40;99.90;;;;;;1880103;75;21049;-74
2021/03/26 08:18:16;;;;;;;18.65;6.55;;;10.90;99.90;;;;;;1878610;75;21146;-74
2021/03/26 08:20:42;;;;;;;15.72;6.85;;;11.20;99.90;;;;;;1878218;75;21080;-74
2021/03/26 08:23:09;;;;;;;10.30;5.92;;;11.20;99.90;;;;;;1877923;75;21089;-74
2021/03/26 08:25:35;;;;;;;11.57;5.65;;;11.20;99.90;;;;;;1880370;74;21084;-74
2021/03/26 08:28:01;;;;;;;11.83;6.12;;;11.50;99.90;;;;;;1878692;74;21148;-74
2021/03/26 08:30:27;;;;;;;16.90;6.72;;;11.50;99.90;;;;;;1877701;75;21076;-73
2021/03/26 08:32:53;;;;;;;13.32;6.15;;;11.40;99.90;;;;;;1876793;75;21210;-73
2021/03/26 08:35:20;;;;;;;15.53;5.97;;;11.80;99.90;;;;;;1878606;74;21085;-73
2021/03/26 08:37:46;;;;;;;13.25;5.87;;;12.40;99.90;;;;;;1878767;74;21053;-72
2021/03/26 08:40:15;;;;;;;10.95;5.42;;;12.40;99.90;;;;;;1876894;74;21150;-73
2021/03/26 08:42:42;;;;;;;14.45;5.92;;;12.80;99.90;;;;;;1879801;74;21127;-74
2021/03/26 08:45:08;;;;;;;15.23;5.45;;;13.30;99.90;;;;;;1877674;74;21057;-74
2021/03/26 08:47:35;;;;;;;13.43;5.45;;;12.90;99.90;;;;;;1877741;75;21092;-74
2021/03/26 08:50:01;;;;;;;10.68;5.85;;;13.10;99.90;;;;;;1878364;75;21166;-74
2021/03/26 08:52:27;;;;;;;12.60;5.75;;;13.60;99.90;;;;;;1881708;75;21092;-74
2021/03/26 08:54:53;;;;;;;13.32;5.85;;;14.20;99.90;;;;;;1879643;74;21081;-74
2021/03/26 08:57:19;;;;;;;15.25;5.15;;;14.00;99.90;;;;;;1877623;74;21146;-74
2021/03/26 08:59:45;;;;;;;9.28;5.55;;;14.20;99.90;;;;;;1876875;75;21088;-74
2021/03/26 09:02:12;;;;;;;13.45;5.62;;;14.10;99.90;;;;;;1879961;75;21115;-73
2021/03/26 09:04:38;;;;;;;8.53;4.33;;;14.50;99.90;;;;;;1876842;74;21080;-73
2021/03/26 09:07:08;;;;;;;12.15;4.87;;;14.80;99.90;;;;;;1880745;74;21169;-73
2021/03/26 09:09:32;;;;;;;12.63;4.95;;;14.90;99.90;;;;;;1877895;74;21197;-72
2021/03/26 09:11:58;;;;;;;10.32;4.75;;;14.80;99.90;;;;;;1877984;75;21047;-72
2021/03/26 09:14:24;;;;;;;13.43;5.20;;;14.80;99.90;;;;;;1877506;75;21085;-73
2021/03/26 09:16:50;;;;;;;10.28;5.25;;;14.40;99.90;;;;;;1856797;76;21245;-72
2021/03/26 09:19:16;;;;;;;12.53;4.78;;;13.50;99.90;;;;;;1857060;76;21450;-72
2021/03/26 09:21:42;;;;;;;12.53;4.78;;;13.50;99.90;;;;;;1853295;75;21594;-73
2021/03/26 09:24:08;;;;;;;7.47;4.33;;;14.20;99.90;;;;;;1870941;75;21481;-73
2021/03/26 09:26:34;;;;;;;15.25;4.92;;;14.90;99.90;;;;;;1862330;75;21637;-72
2021/03/26 09:29:01;;;;;;;9.28;4.92;;;15.20;99.90;;;;;;1862800;75;21097;-73
2021/03/26 09:31:27;;;;;;;10.32;4.87;;;15.90;99.90;;;;;;1849012;76;21143;-73
2021/03/26 09:33:53;;;;;;;9.45;5.00;;;15.90;99.90;;;;;;1856946;75;21092;-73
2021/03/26 09:36:19;;;;;;;25.72;5.33;;;15.10;99.90;;;;;;1857198;75;21159;-72
2021/03/26 09:38:47;;;;;;;8.33;4.55;;;14.80;99.90;;;;;;1872028;75;21050;-73
2021/03/26 09:41:23;;;;;;;12.68;5.08;;;15.30;99.90;;;;;;1841746;75;21093;-73
2021/03/26 09:43:47;;;;;;;13.00;4.72;;;15.80;99.90;;;;;;1875405;75;21103;-72
2021/03/26 09:46:21;;;;;;;8.13;4.70;;;16.30;99.90;;;;;;1853572;76;21100;-74
2021/03/26 09:48:47;;;;;;;8.88;4.53;;;16.60;99.90;;;;;;1862110;75;21562;-72
2021/03/26 09:51:13;;;;;;;9.90;4.72;;;17.00;99.90;;;;;;1848035;75;21508;-73
2021/03/26 09:53:39;;;;;;;10.65;4.70;;;16.60;99.90;;;;;;1852629;74;21085;-74
2021/03/26 09:56:05;;;;;;;12.20;4.87;;;16.30;99.90;;;;;;1859686;75;21104;-73
2021/03/26 09:58:31;;;;;;;10.55;4.95;;;16.90;99.90;;;;;;1878978;75;21081;-73
2021/03/26 10:00:58;;;;;;;12.98;5.30;;;17.10;99.90;;;;;;1856789;76;21093;-74
2021/03/26 10:03:24;;;;;;;9.30;4.95;;;17.90;99.90;;;;;;1831396;76;21148;-74
2021/03/26 10:05:50;;;;;;;9.20;4.83;;;18.30;99.90;;;;;;1851334;75;21176;-74
2021/03/26 10:11:00;;;;;;;11.30;4.50;;;18.70;99.90;;;;;;1876962;75;21066;-76
2021/03/26 10:13:26;;;;;;;12.20;4.90;;;19.00;99.90;;;;;;1860714;75;21161;-74
2021/03/26 10:15:56;;;;;;;10.45;3.72;;;18.30;99.90;;;;;;1859608;75;21061;-75
2021/03/26 10:18:20;;;;;;;10.23;4.85;;;18.20;99.90;;;;;;1860219;76;21284;-74
2021/03/26 10:20:47;;;;;;;9.08;4.30;;;17.90;99.90;;;;;;1845849;75;21132;-74
2021/03/26 10:23:13;;;;;;;8.00;4.05;;;17.30;99.90;;;;;;1859897;76;21159;-75
2021/03/26 10:25:39;;;;;;;14.63;4.25;;;17.50;99.90;;;;;;1844416;75;21600;-74
2021/03/26 10:28:05;;;;;;;8.00;4.22;;;17.40;99.90;;;;;;1876018;75;21520;-74
2021/03/26 10:30:31;;;;;;;10.72;4.15;;;17.70;99.90;;;;;;1851363;75;21568;-75
2021/03/26 10:32:57;;;;;;;9.18;4.28;;;18.10;99.90;;;;;;1871604;75;21547;-75
2021/03/26 10:35:24;;;;;;;11.12;4.00;;;18.80;99.90;;;;;;1854383;76;21507;-74
2021/03/26 10:37:50;;;;;;;10.75;4.17;;;19.00;99.90;;;;;;1862010;75;21594;-75
2021/03/26 10:40:16;;;;;;;8.38;3.75;;;18.80;99.90;;;;;;1860333;76;21788;-75
2021/03/26 10:42:46;;;;;;;6.85;3.80;;;19.00;99.90;;;;;;1853865;75;21632;-75
2021/03/26 10:45:13;;;;;;;9.55;4.22;;;19.50;99.90;;;;;;1857306;75;21105;-76
2021/03/26 10:47:42;;;;;;;11.78;3.83;;;20.00;97.30;;;;;;1864181;75;21147;-76
2021/03/26 10:50:08;;;;;;;11.28;4.15;;;19.90;96.60;;;;;;1878964;75;21476;-75
2021/03/26 10:52:35;;;;;;;7.45;3.37;;;19.60;96.00;;;;;;1879732;74;21562;-77
2021/03/26 10:55:01;;;;;;;8.20;3.52;;;19.30;96.40;;;;;;1859965;75;21585;-76
2021/03/26 10:57:27;;;;;;;17.32;3.65;;;19.50;96.40;;;;;;1857963;75;21740;-76
2021/03/26 10:59:54;;;;;;;5.45;2.95;;;19.50;95.60;;;;;;1851974;75;21105;-71
2021/03/26 11:02:21;;;;;;;7.40;3.47;;;19.50;95.40;;;;;;1853725;75;21524;-72
2021/03/26 11:04:47;;;;;;;5.80;2.95;;;19.60;95.40;;;;;;1859975;75;21504;-74
2021/03/26 11:07:14;;;;;;;5.70;3.20;;;19.70;95.90;;;;;;1860975;75;21516;-72
2021/03/26 11:09:42;;;;;;;8.08;3.55;;;19.90;95.50;;;;;;1860395;76;21080;-70
2021/03/26 11:12:09;;;;;;;6.78;3.37;;;20.50;93.50;;;;;;1856003;75;21093;-74
2021/03/26 11:14:35;;;;;;;5.80;3.10;;;20.40;92.60;;;;;;1853075;76;21151;-73
2021/03/26 11:17:01;;;;;;;9.33;2.83;;;20.00;92.70;;;;;;1853315;76;21151;-73
2021/03/26 11:19:27;;;;;;;6.58;3.10;;;20.20;92.20;;;;;;1849997;76;21175;-75
2021/03/26 11:21:53;;;;;;;8.13;3.50;;;20.20;91.90;;;;;;1856731;75;21580;-71
2021/03/26 11:24:20;;;;;;;6.10;2.87;;;19.80;92.10;;;;;;1855699;75;21053;-72
2021/03/26 11:26:46;;;;;;;9.28;3.27;;;20.00;91.70;;;;;;1858260;76;21076;-73
2021/03/26 11:29:12;;;;;;;7.70;2.58;;;20.30;90.90;;;;;;1856223;75;21145;-72
2021/03/26 11:31:38;;;;;;;9.33;3.42;;;19.90;91.30;;;;;;1857592;76;21139;-70
2021/03/26 11:34:04;;;;;;;8.28;2.90;;;19.80;91.70;;;;;;1851499;75;21089;-70
2021/03/26 11:36:30;;;;;;;10.23;2.83;;;19.90;90.60;;;;;;1853310;76;21085;-71
2021/03/26 11:38:56;;;;;;;4.05;2.20;;;20.20;89.90;;;;;;1874680;74;21081;-71
2021/03/26 11:41:23;;;;;;;4.25;1.90;;;20.10;88.70;;;;;;1855877;75;21155;-71
2021/03/26 11:43:49;;;;;;;5.20;1.80;;;20.00;86.30;;;;;;1851231;75;21160;-71
2021/03/26 11:46:16;;;;;;;7.58;2.00;;;19.70;85.10;;;;;;1860394;76;21058;-71
2021/03/26 11:48:42;;;;;;;4.85;2.02;;;19.10;88.20;;;;;;1841608;76;21584;-71
2021/03/26 11:51:08;;;;;;;7.47;2.25;;;19.40;87.90;;;;;;1854001;76;21526;-70
2021/03/26 11:53:34;;;;;;;2.35;1.60;;;19.50;85.10;;;;;;1855327;76;21563;-69
2021/03/26 11:56:01;;;;;;;3.80;1.60;;;20.30;83.70;;;;;;1860565;76;21628;-70
2021/03/26 11:58:27;;;;;;;1.90;1.22;;;21.00;79.20;;;;;;1853631;76;21555;-70
2021/03/26 12:00:54;;;;;;;3.12;1.20;;;21.20;75.50;;;;;;1865587;76;21105;-70
2021/03/26 12:03:20;;;;;;;2.80;1.32;;;20.70;73.40;;;;;;1858118;75;21512;-71
2021/03/26 12:05:46;;;;;;;8.08;1.30;;;20.50;74.60;;;;;;1857144;75;21567;-71
2021/03/26 12:08:12;;;;;;;2.95;1.40;;;20.50;73.20;;;;;;1849295;74;21591;-71
2021/03/26 12:10:38;;;;;;;6.25;1.72;;;20.30;74.40;;;;;;1856611;75;21482;-72
2021/03/26 12:13:05;;;;;;;8.85;1.82;;;20.70;76.10;;;;;;1877470;74;21074;-71
2021/03/26 12:15:32;;;;;;;2.27;1.30;;;21.20;72.40;;;;;;1844550;76;21125;-71
2021/03/26 12:17:58;;;;;;;5.08;1.55;;;21.20;69.90;;;;;;1853488;75;21488;-72
2021/03/26 12:20:24;;;;;;;2.75;1.60;;;21.00;71.50;;;;;;1861871;75;21530;-70
2021/03/26 12:22:51;;;;;;;3.47;2.25;;;21.10;72.00;;;;;;1845565;76;21070;-71
2021/03/26 12:25:18;;;;;;;5.67;1.77;;;21.20;69.60;;;;;;1859309;75;21506;-71
2021/03/26 12:27:44;;;;;;;2.62;1.52;;;21.10;71.00;;;;;;1849416;76;21102;-71
2021/03/26 12:30:10;;;;;;;4.35;1.60;;;20.80;71.90;;;;;;1852806;76;21084;-71
2021/03/26 12:32:36;;;;;;;4.60;2.30;;;21.60;71.10;;;;;;1859424;75;21155;-72
2021/03/26 12:35:02;;;;;;;5.03;2.08;;;21.40;71.60;;;;;;1850273;76;21102;-71
2021/03/26 12:37:28;;;;;;;8.45;1.90;;;21.80;71.90;;;;;;1856381;75;21092;-72
2021/03/26 12:39:55;;;;;;;3.35;1.98;;;22.60;69.40;;;;;;1850634;75;21086;-71
2021/03/26 12:42:21;;;;;;;3.87;1.90;;;22.60;67.00;;;;;;1845784;76;21101;-71
2021/03/26 12:44:47;;;;;;;2.55;1.85;;;22.50;66.40;;;;;;1854312;75;21058;-71